sensor_id;sensor_type;location;lat;lon;timestamp;P1;durP1;ratioP1;P2;durP2;ratioP2
70829;SDS011;58451;51.550;7.208;2023-07-24T00:00:10;4.60;;;1.60;;
70829;SDS011;58451;51.550;7.208;2023-07-24T00:01:42;6.30;;;1.70;;
70829;SDS011;58451;51.550;7.208;2023-07-24T00:03:14;5.30;;;1.80;;
70829;SDS011;58451;51.550;7.208;2023-07-24T00:04:46;5.60;;;1.70;;
70829;SDS011;58451;51.550;7.208;2023-07-24T00:06:18;4.60;;;1.90;;
70829;SDS011;58451;51.550;7.208;2023-07-24T00:07:50;4.70;;;1.50;;
70829;SDS011;58451;51.550;7.208;2023-07-24T00:09:22;6.40;;;1.60;;
70829;SDS011;58451;51.550;7.208;2023-07-24T00:10:53;5.10;;;1.40;;
70829;SDS011;58451;51.550;7.208;2023-07-24T00:12:25;4.90;;;1.80;;
70829;SDS011;58451;51.550;7.208;2023-07-24T00:13:57;4.40;;;1.60;;
70829;SDS011;58451;51.550;7.208;2023-07-24T00:15:29;4.40;;;1.60;;
70829;SDS011;58451;51.550;7.208;2023-07-24T00:17:01;5.20;;;1.70;;
70829;SDS011;58451;51.550;7.208;2023-07-24T00:18:33;8.50;;;2.20;;
70829;SDS011;58451;51.550;7.208;2023-07-24T00:20:06;5.80;;;1.80;;
70829;SDS011;58451;51.550;7.208;2023-07-24T00:21:38;4.90;;;1.80;;
70829;SDS011;58451;51.550;7.208;2023-07-24T00:23:10;5.60;;;1.80;;
70829;SDS011;58451;51.550;7.208;2023-07-24T00:24:42;6.20;;;2.30;;
70829;SDS011;58451;51.550;7.208;2023-07-24T00:26:14;6.60;;;1.70;;
70829;SDS011;58451;51.550;7.208;2023-07-24T00:27:45;6.90;;;1.80;;
70829;SDS011;58451;51.550;7.208;2023-07-24T00:29:17;4.10;;;1.80;;
70829;SDS011;58451;51.550;7.208;2023-07-24T00:30:49;4.10;;;1.50;;
70829;SDS011;58451;51.550;7.208;2023-07-24T00:32:21;6.00;;;1.90;;
70829;SDS011;58451;51.550;7.208;2023-07-24T00:33:53;6.80;;;2.10;;
70829;SDS011;58451;51.550;7.208;2023-07-24T00:35:25;4.80;;;1.70;;
70829;SDS011;58451;51.550;7.208;2023-07-24T00:36:58;5.70;;;1.90;;
70829;SDS011;58451;51.550;7.208;2023-07-24T00:38:30;7.80;;;1.80;;
70829;SDS011;58451;51.550;7.208;2023-07-24T00:40:02;6.70;;;2.00;;
70829;SDS011;58451;51.550;7.208;2023-07-24T00:41:34;5.90;;;2.00;;
70829;SDS011;58451;51.550;7.208;2023-07-24T00:43:06;6.80;;;2.50;;
70829;SDS011;58451;51.550;7.208;2023-07-24T00:44:39;5.60;;;2.40;;
70829;SDS011;58451;51.550;7.208;2023-07-24T00:46:11;6.60;;;2.40;;
70829;SDS011;58451;51.550;7.208;2023-07-24T00:47:43;5.10;;;1.90;;
70829;SDS011;58451;51.550;7.208;2023-07-24T00:49:16;6.10;;;2.10;;
70829;SDS011;58451;51.550;7.208;2023-07-24T00:50:49;6.20;;;2.30;;
70829;SDS011;58451;51.550;7.208;2023-07-24T00:52:21;6.00;;;2.20;;
70829;SDS011;58451;51.550;7.208;2023-07-24T00:53:56;6.30;;;2.40;;
70829;SDS011;58451;51.550;7.208;2023-07-24T00:55:31;4.50;;;1.80;;
70829;SDS011;58451;51.550;7.208;2023-07-24T00:57:04;5.80;;;2.30;;
70829;SDS011;58451;51.550;7.208;2023-07-24T00:58:37;5.00;;;1.90;;
70829;SDS011;58451;51.550;7.208;2023-07-24T01:00:13;4.90;;;1.90;;
70829;SDS011;58451;51.550;7.208;2023-07-24T01:01:46;5.50;;;2.30;;
70829;SDS011;58451;51.550;7.208;2023-07-24T01:03:18;6.50;;;2.20;;
70829;SDS011;58451;51.550;7.208;2023-07-24T01:04:50;4.40;;;1.80;;
70829;SDS011;58451;51.550;7.208;2023-07-24T01:06:23;6.00;;;1.90;;
70829;SDS011;58451;51.550;7.208;2023-07-24T01:07:55;5.50;;;2.10;;
70829;SDS011;58451;51.550;7.208;2023-07-24T01:09:29;5.90;;;2.00;;
70829;SDS011;58451;51.550;7.208;2023-07-24T01:11:09;6.70;;;2.10;;
70829;SDS011;58451;51.550;7.208;2023-07-24T01:13:02;7.60;;;2.20;;
70829;SDS011;58451;51.550;7.208;2023-07-24T01:15:00;5.70;;;2.00;;
70829;SDS011;58451;51.550;7.208;2023-07-24T01:16:45;5.30;;;1.90;;
70829;SDS011;58451;51.550;7.208;2023-07-24T01:18:22;5.30;;;2.30;;
70829;SDS011;58451;51.550;7.208;2023-07-24T01:19:58;4.50;;;1.90;;
70829;SDS011;58451;51.550;7.208;2023-07-24T01:21:38;5.90;;;1.90;;
70829;SDS011;58451;51.550;7.208;2023-07-24T01:23:59;5.20;;;1.90;;
70829;SDS011;58451;51.550;7.208;2023-07-24T01:25:57;7.60;;;2.30;;
70829;SDS011;58451;51.550;7.208;2023-07-24T01:27:30;6.90;;;2.10;;
70829;SDS011;58451;51.550;7.208;2023-07-24T01:29:02;6.80;;;2.00;;
70829;SDS011;58451;51.550;7.208;2023-07-24T01:30:34;5.50;;;2.10;;
70829;SDS011;58451;51.550;7.208;2023-07-24T01:32:07;7.10;;;2.20;;
70829;SDS011;58451;51.550;7.208;2023-07-24T01:33:39;6.60;;;2.60;;
70829;SDS011;58451;51.550;7.208;2023-07-24T01:35:11;5.70;;;2.20;;
70829;SDS011;58451;51.550;7.208;2023-07-24T01:36:44;6.10;;;2.30;;
70829;SDS011;58451;51.550;7.208;2023-07-24T01:38:17;6.00;;;2.40;;
70829;SDS011;58451;51.550;7.208;2023-07-24T01:39:50;6.70;;;2.00;;
70829;SDS011;58451;51.550;7.208;2023-07-24T01:41:22;8.70;;;2.30;;
70829;SDS011;58451;51.550;7.208;2023-07-24T01:42:55;5.90;;;2.30;;
70829;SDS011;58451;51.550;7.208;2023-07-24T01:44:27;5.70;;;2.20;;
70829;SDS011;58451;51.550;7.208;2023-07-24T01:45:59;5.30;;;2.20;;
70829;SDS011;58451;51.550;7.208;2023-07-24T01:47:32;9.40;;;2.60;;
70829;SDS011;58451;51.550;7.208;2023-07-24T01:49:04;5.60;;;2.20;;
70829;SDS011;58451;51.550;7.208;2023-07-24T01:50:35;8.00;;;2.50;;
70829;SDS011;58451;51.550;7.208;2023-07-24T01:52:07;6.90;;;2.30;;
70829;SDS011;58451;51.550;7.208;2023-07-24T01:53:39;6.40;;;2.30;;
70829;SDS011;58451;51.550;7.208;2023-07-24T01:55:11;7.80;;;2.50;;
70829;SDS011;58451;51.550;7.208;2023-07-24T01:56:43;6.80;;;2.20;;
70829;SDS011;58451;51.550;7.208;2023-07-24T01:58:15;5.50;;;2.10;;
70829;SDS011;58451;51.550;7.208;2023-07-24T01:59:47;6.10;;;2.40;;
70829;SDS011;58451;51.550;7.208;2023-07-24T02:01:20;6.00;;;2.10;;
70829;SDS011;58451;51.550;7.208;2023-07-24T02:02:52;6.10;;;2.00;;
70829;SDS011;58451;51.550;7.208;2023-07-24T02:04:24;6.50;;;2.10;;
70829;SDS011;58451;51.550;7.208;2023-07-24T02:05:56;6.60;;;2.30;;
70829;SDS011;58451;51.550;7.208;2023-07-24T02:07:27;8.60;;;2.20;;
70829;SDS011;58451;51.550;7.208;2023-07-24T02:08:59;6.30;;;2.10;;
70829;SDS011;58451;51.550;7.208;2023-07-24T02:10:31;6.10;;;2.50;;
70829;SDS011;58451;51.550;7.208;2023-07-24T02:12:03;6.00;;;2.10;;
70829;SDS011;58451;51.550;7.208;2023-07-24T02:13:36;7.40;;;2.30;;
70829;SDS011;58451;51.550;7.208;2023-07-24T02:15:08;5.90;;;2.40;;
70829;SDS011;58451;51.550;7.208;2023-07-24T02:16:40;6.50;;;2.50;;
70829;SDS011;58451;51.550;7.208;2023-07-24T02:18:12;7.60;;;2.40;;
70829;SDS011;58451;51.550;7.208;2023-07-24T02:19:44;6.10;;;2.50;;
70829;SDS011;58451;51.550;7.208;2023-07-24T02:21:16;5.90;;;2.10;;
70829;SDS011;58451;51.550;7.208;2023-07-24T02:22:48;5.50;;;2.10;;
70829;SDS011;58451;51.550;7.208;2023-07-24T02:24:20;6.00;;;2.20;;
70829;SDS011;58451;51.550;7.208;2023-07-24T02:25:52;4.80;;;1.90;;
70829;SDS011;58451;51.550;7.208;2023-07-24T02:27:29;5.60;;;2.00;;
70829;SDS011;58451;51.550;7.208;2023-07-24T02:29:03;6.50;;;2.40;;
70829;SDS011;58451;51.550;7.208;2023-07-24T02:30:39;5.40;;;2.30;;
70829;SDS011;58451;51.550;7.208;2023-07-24T02:32:11;6.90;;;2.30;;
70829;SDS011;58451;51.550;7.208;2023-07-24T02:33:42;5.60;;;2.20;;
70829;SDS011;58451;51.550;7.208;2023-07-24T02:35:14;5.60;;;2.00;;
70829;SDS011;58451;51.550;7.208;2023-07-24T02:36:46;7.30;;;2.30;;
70829;SDS011;58451;51.550;7.208;2023-07-24T02:38:18;5.60;;;2.10;;
70829;SDS011;58451;51.550;7.208;2023-07-24T02:39:51;7.90;;;2.50;;
70829;SDS011;58451;51.550;7.208;2023-07-24T02:41:24;6.50;;;2.80;;
70829;SDS011;58451;51.550;7.208;2023-07-24T02:42:56;6.10;;;2.40;;
70829;SDS011;58451;51.550;7.208;2023-07-24T02:44:28;5.60;;;2.20;;
70829;SDS011;58451;51.550;7.208;2023-07-24T02:46:01;5.80;;;2.40;;
70829;SDS011;58451;51.550;7.208;2023-07-24T02:47:33;7.30;;;2.10;;
70829;SDS011;58451;51.550;7.208;2023-07-24T02:49:05;7.40;;;2.70;;
70829;SDS011;58451;51.550;7.208;2023-07-24T02:50:37;8.80;;;2.60;;
70829;SDS011;58451;51.550;7.208;2023-07-24T02:52:09;7.00;;;2.70;;
70829;SDS011;58451;51.550;7.208;2023-07-24T02:53:41;4.40;;;1.60;;
70829;SDS011;58451;51.550;7.208;2023-07-24T02:55:12;6.50;;;2.50;;
70829;SDS011;58451;51.550;7.208;2023-07-24T02:56:44;6.20;;;2.50;;
70829;SDS011;58451;51.550;7.208;2023-07-24T02:58:16;6.40;;;2.40;;
70829;SDS011;58451;51.550;7.208;2023-07-24T02:59:48;6.60;;;2.40;;
70829;SDS011;58451;51.550;7.208;2023-07-24T03:01:20;7.50;;;2.70;;
70829;SDS011;58451;51.550;7.208;2023-07-24T03:02:52;6.30;;;2.60;;
70829;SDS011;58451;51.550;7.208;2023-07-24T03:04:24;6.70;;;2.40;;
70829;SDS011;58451;51.550;7.208;2023-07-24T03:05:56;9.60;;;2.60;;
70829;SDS011;58451;51.550;7.208;2023-07-24T03:07:28;6.70;;;2.60;;
70829;SDS011;58451;51.550;7.208;2023-07-24T03:09:00;7.40;;;2.60;;
70829;SDS011;58451;51.550;7.208;2023-07-24T03:10:33;8.00;;;2.40;;
70829;SDS011;58451;51.550;7.208;2023-07-24T03:12:05;6.50;;;2.40;;
70829;SDS011;58451;51.550;7.208;2023-07-24T03:13:37;7.30;;;2.70;;
70829;SDS011;58451;51.550;7.208;2023-07-24T03:15:12;6.70;;;2.50;;
70829;SDS011;58451;51.550;7.208;2023-07-24T03:16:44;7.30;;;2.50;;
70829;SDS011;58451;51.550;7.208;2023-07-24T03:18:16;9.40;;;2.80;;
70829;SDS011;58451;51.550;7.208;2023-07-24T03:19:48;6.20;;;2.90;;
70829;SDS011;58451;51.550;7.208;2023-07-24T03:21:20;6.60;;;2.80;;
70829;SDS011;58451;51.550;7.208;2023-07-24T03:22:52;8.60;;;2.80;;
70829;SDS011;58451;51.550;7.208;2023-07-24T03:24:24;6.60;;;2.60;;
70829;SDS011;58451;51.550;7.208;2023-07-24T03:25:56;7.60;;;2.80;;
70829;SDS011;58451;51.550;7.208;2023-07-24T03:27:28;8.80;;;3.00;;
70829;SDS011;58451;51.550;7.208;2023-07-24T03:29:00;8.50;;;2.90;;
70829;SDS011;58451;51.550;7.208;2023-07-24T03:30:32;10.30;;;3.20;;
70829;SDS011;58451;51.550;7.208;2023-07-24T03:32:04;6.80;;;2.80;;
70829;SDS011;58451;51.550;7.208;2023-07-24T03:33:37;7.90;;;2.80;;
70829;SDS011;58451;51.550;7.208;2023-07-24T03:35:08;7.70;;;3.00;;
70829;SDS011;58451;51.550;7.208;2023-07-24T03:36:40;9.40;;;3.50;;
70829;SDS011;58451;51.550;7.208;2023-07-24T03:38:13;7.30;;;3.00;;
70829;SDS011;58451;51.550;7.208;2023-07-24T03:39:45;9.40;;;2.80;;
70829;SDS011;58451;51.550;7.208;2023-07-24T03:41:17;7.80;;;3.50;;
70829;SDS011;58451;51.550;7.208;2023-07-24T03:42:49;7.80;;;3.20;;
70829;SDS011;58451;51.550;7.208;2023-07-24T03:44:21;8.50;;;3.10;;
70829;SDS011;58451;51.550;7.208;2023-07-24T03:45:52;8.40;;;3.00;;
70829;SDS011;58451;51.550;7.208;2023-07-24T03:47:24;8.00;;;3.00;;
70829;SDS011;58451;51.550;7.208;2023-07-24T03:48:56;7.90;;;3.20;;
70829;SDS011;58451;51.550;7.208;2023-07-24T03:50:29;9.50;;;3.50;;
70829;SDS011;58451;51.550;7.208;2023-07-24T03:52:01;8.20;;;3.30;;
70829;SDS011;58451;51.550;7.208;2023-07-24T03:53:33;8.50;;;3.20;;
70829;SDS011;58451;51.550;7.208;2023-07-24T03:55:05;9.00;;;3.30;;
70829;SDS011;58451;51.550;7.208;2023-07-24T03:56:37;9.20;;;3.10;;
70829;SDS011;58451;51.550;7.208;2023-07-24T03:58:09;8.10;;;3.30;;
70829;SDS011;58451;51.550;7.208;2023-07-24T03:59:41;8.10;;;3.00;;
70829;SDS011;58451;51.550;7.208;2023-07-24T04:01:12;10.70;;;3.30;;
70829;SDS011;58451;51.550;7.208;2023-07-24T04:02:44;7.90;;;3.30;;
70829;SDS011;58451;51.550;7.208;2023-07-24T04:04:16;8.40;;;3.10;;
70829;SDS011;58451;51.550;7.208;2023-07-24T04:05:48;9.10;;;3.20;;
70829;SDS011;58451;51.550;7.208;2023-07-24T04:07:20;9.00;;;2.80;;
70829;SDS011;58451;51.550;7.208;2023-07-24T04:08:52;9.50;;;3.00;;
70829;SDS011;58451;51.550;7.208;2023-07-24T04:10:23;7.10;;;3.20;;
70829;SDS011;58451;51.550;7.208;2023-07-24T04:11:55;10.50;;;3.40;;
70829;SDS011;58451;51.550;7.208;2023-07-24T04:13:27;10.00;;;3.10;;
70829;SDS011;58451;51.550;7.208;2023-07-24T04:14:59;7.80;;;3.10;;
70829;SDS011;58451;51.550;7.208;2023-07-24T04:16:31;8.70;;;3.40;;
70829;SDS011;58451;51.550;7.208;2023-07-24T04:18:03;10.10;;;3.30;;
70829;SDS011;58451;51.550;7.208;2023-07-24T04:19:35;10.40;;;3.20;;
70829;SDS011;58451;51.550;7.208;2023-07-24T04:21:06;8.60;;;3.10;;
70829;SDS011;58451;51.550;7.208;2023-07-24T04:22:38;8.90;;;3.30;;
70829;SDS011;58451;51.550;7.208;2023-07-24T04:24:10;8.80;;;3.10;;
70829;SDS011;58451;51.550;7.208;2023-07-24T04:25:42;9.60;;;3.00;;
70829;SDS011;58451;51.550;7.208;2023-07-24T04:27:14;9.70;;;3.10;;
70829;SDS011;58451;51.550;7.208;2023-07-24T04:28:46;8.50;;;3.40;;
70829;SDS011;58451;51.550;7.208;2023-07-24T04:30:18;7.70;;;3.00;;
70829;SDS011;58451;51.550;7.208;2023-07-24T04:31:50;7.30;;;2.70;;
70829;SDS011;58451;51.550;7.208;2023-07-24T04:33:22;11.20;;;3.60;;
70829;SDS011;58451;51.550;7.208;2023-07-24T04:34:58;10.20;;;3.60;;
70829;SDS011;58451;51.550;7.208;2023-07-24T04:36:30;8.00;;;3.30;;
70829;SDS011;58451;51.550;7.208;2023-07-24T04:38:02;7.70;;;3.10;;
70829;SDS011;58451;51.550;7.208;2023-07-24T04:39:35;8.20;;;3.40;;
70829;SDS011;58451;51.550;7.208;2023-07-24T04:41:07;7.80;;;3.00;;
70829;SDS011;58451;51.550;7.208;2023-07-24T04:42:39;8.90;;;3.40;;
70829;SDS011;58451;51.550;7.208;2023-07-24T04:44:10;7.90;;;2.90;;
70829;SDS011;58451;51.550;7.208;2023-07-24T04:45:42;9.60;;;3.50;;
70829;SDS011;58451;51.550;7.208;2023-07-24T04:47:14;7.20;;;2.70;;
70829;SDS011;58451;51.550;7.208;2023-07-24T04:48:46;7.50;;;3.00;;
70829;SDS011;58451;51.550;7.208;2023-07-24T04:50:17;10.00;;;2.90;;
70829;SDS011;58451;51.550;7.208;2023-07-24T04:51:50;11.00;;;3.40;;
70829;SDS011;58451;51.550;7.208;2023-07-24T04:53:23;8.20;;;2.80;;
70829;SDS011;58451;51.550;7.208;2023-07-24T04:54:55;8.20;;;3.10;;
70829;SDS011;58451;51.550;7.208;2023-07-24T04:56:26;6.60;;;2.40;;
70829;SDS011;58451;51.550;7.208;2023-07-24T04:57:59;8.10;;;3.00;;
70829;SDS011;58451;51.550;7.208;2023-07-24T04:59:30;7.20;;;2.90;;
70829;SDS011;58451;51.550;7.208;2023-07-24T05:01:03;10.60;;;3.40;;
70829;SDS011;58451;51.550;7.208;2023-07-24T05:02:35;8.30;;;2.90;;
70829;SDS011;58451;51.550;7.208;2023-07-24T05:04:07;7.20;;;3.10;;
70829;SDS011;58451;51.550;7.208;2023-07-24T05:05:39;7.40;;;2.90;;
70829;SDS011;58451;51.550;7.208;2023-07-24T05:07:16;9.30;;;3.20;;
70829;SDS011;58451;51.550;7.208;2023-07-24T05:08:47;10.30;;;3.40;;
70829;SDS011;58451;51.550;7.208;2023-07-24T05:10:19;7.50;;;2.80;;
70829;SDS011;58451;51.550;7.208;2023-07-24T05:11:51;7.70;;;3.00;;
70829;SDS011;58451;51.550;7.208;2023-07-24T05:13:23;8.20;;;3.40;;
70829;SDS011;58451;51.550;7.208;2023-07-24T05:14:55;12.80;;;3.60;;
70829;SDS011;58451;51.550;7.208;2023-07-24T05:16:26;9.30;;;2.90;;
70829;SDS011;58451;51.550;7.208;2023-07-24T05:17:59;9.40;;;3.40;;
70829;SDS011;58451;51.550;7.208;2023-07-24T05:19:30;8.30;;;3.40;;
70829;SDS011;58451;51.550;7.208;2023-07-24T05:21:02;8.30;;;3.00;;
70829;SDS011;58451;51.550;7.208;2023-07-24T05:22:34;8.80;;;2.80;;
70829;SDS011;58451;51.550;7.208;2023-07-24T05:24:06;7.80;;;3.10;;
70829;SDS011;58451;51.550;7.208;2023-07-24T05:25:38;8.10;;;2.90;;
70829;SDS011;58451;51.550;7.208;2023-07-24T05:27:10;8.30;;;3.20;;
70829;SDS011;58451;51.550;7.208;2023-07-24T05:28:44;8.20;;;2.70;;
70829;SDS011;58451;51.550;7.208;2023-07-24T05:30:15;10.10;;;3.20;;
70829;SDS011;58451;51.550;7.208;2023-07-24T05:31:47;6.50;;;2.80;;
70829;SDS011;58451;51.550;7.208;2023-07-24T05:33:19;9.40;;;3.00;;
70829;SDS011;58451;51.550;7.208;2023-07-24T05:34:51;7.80;;;3.00;;
70829;SDS011;58451;51.550;7.208;2023-07-24T05:36:23;8.30;;;3.20;;
70829;SDS011;58451;51.550;7.208;2023-07-24T05:37:55;8.80;;;3.00;;
70829;SDS011;58451;51.550;7.208;2023-07-24T05:39:29;8.50;;;3.30;;
70829;SDS011;58451;51.550;7.208;2023-07-24T05:41:02;8.90;;;2.80;;
70829;SDS011;58451;51.550;7.208;2023-07-24T05:42:35;6.70;;;2.90;;
70829;SDS011;58451;51.550;7.208;2023-07-24T05:44:12;8.50;;;3.20;;
70829;SDS011;58451;51.550;7.208;2023-07-24T05:45:44;7.80;;;3.10;;
70829;SDS011;58451;51.550;7.208;2023-07-24T05:47:16;7.90;;;2.90;;
70829;SDS011;58451;51.550;7.208;2023-07-24T05:48:48;7.80;;;2.90;;
70829;SDS011;58451;51.550;7.208;2023-07-24T05:50:20;7.20;;;2.60;;
70829;SDS011;58451;51.550;7.208;2023-07-24T05:51:52;9.30;;;3.30;;
70829;SDS011;58451;51.550;7.208;2023-07-24T05:53:25;7.60;;;2.60;;
70829;SDS011;58451;51.550;7.208;2023-07-24T05:54:57;7.90;;;3.00;;
70829;SDS011;58451;51.550;7.208;2023-07-24T05:56:29;7.10;;;2.90;;
70829;SDS011;58451;51.550;7.208;2023-07-24T05:58:01;7.60;;;3.20;;
70829;SDS011;58451;51.550;7.208;2023-07-24T05:59:33;8.80;;;3.50;;
70829;SDS011;58451;51.550;7.208;2023-07-24T06:01:05;6.70;;;2.60;;
70829;SDS011;58451;51.550;7.208;2023-07-24T06:02:39;9.70;;;2.80;;
70829;SDS011;58451;51.550;7.208;2023-07-24T06:04:11;7.70;;;3.20;;
70829;SDS011;58451;51.550;7.208;2023-07-24T06:05:43;8.40;;;3.10;;
70829;SDS011;58451;51.550;7.208;2023-07-24T06:07:15;9.90;;;3.40;;
70829;SDS011;58451;51.550;7.208;2023-07-24T06:08:46;9.40;;;3.00;;
70829;SDS011;58451;51.550;7.208;2023-07-24T06:10:19;7.40;;;2.60;;
70829;SDS011;58451;51.550;7.208;2023-07-24T06:11:50;8.40;;;2.70;;
70829;SDS011;58451;51.550;7.208;2023-07-24T06:13:22;9.10;;;2.90;;
70829;SDS011;58451;51.550;7.208;2023-07-24T06:14:54;6.90;;;2.90;;
70829;SDS011;58451;51.550;7.208;2023-07-24T06:16:26;9.20;;;3.30;;
70829;SDS011;58451;51.550;7.208;2023-07-24T06:17:58;8.80;;;3.30;;
70829;SDS011;58451;51.550;7.208;2023-07-24T06:19:30;9.10;;;3.10;;
70829;SDS011;58451;51.550;7.208;2023-07-24T06:21:02;7.50;;;2.80;;
70829;SDS011;58451;51.550;7.208;2023-07-24T06:22:35;7.80;;;3.00;;
70829;SDS011;58451;51.550;7.208;2023-07-24T06:24:07;10.70;;;3.10;;
70829;SDS011;58451;51.550;7.208;2023-07-24T06:25:43;9.90;;;3.00;;
70829;SDS011;58451;51.550;7.208;2023-07-24T06:27:15;8.70;;;3.20;;
70829;SDS011;58451;51.550;7.208;2023-07-24T06:28:47;9.40;;;3.00;;
70829;SDS011;58451;51.550;7.208;2023-07-24T06:30:19;7.70;;;2.80;;
70829;SDS011;58451;51.550;7.208;2023-07-24T06:31:51;7.00;;;3.00;;
70829;SDS011;58451;51.550;7.208;2023-07-24T06:33:23;6.80;;;2.80;;
70829;SDS011;58451;51.550;7.208;2023-07-24T06:34:55;7.90;;;2.80;;
70829;SDS011;58451;51.550;7.208;2023-07-24T06:36:27;7.40;;;2.60;;
70829;SDS011;58451;51.550;7.208;2023-07-24T06:37:59;7.90;;;3.30;;
70829;SDS011;58451;51.550;7.208;2023-07-24T06:39:31;6.70;;;3.00;;
70829;SDS011;58451;51.550;7.208;2023-07-24T06:41:04;10.40;;;3.30;;
70829;SDS011;58451;51.550;7.208;2023-07-24T06:42:36;6.80;;;3.10;;
70829;SDS011;58451;51.550;7.208;2023-07-24T06:44:08;8.60;;;3.50;;
70829;SDS011;58451;51.550;7.208;2023-07-24T06:45:40;8.40;;;3.40;;
70829;SDS011;58451;51.550;7.208;2023-07-24T06:47:12;7.40;;;2.80;;
70829;SDS011;58451;51.550;7.208;2023-07-24T06:48:44;7.30;;;3.10;;
70829;SDS011;58451;51.550;7.208;2023-07-24T06:50:16;6.70;;;2.80;;
70829;SDS011;58451;51.550;7.208;2023-07-24T06:51:48;9.20;;;3.70;;
70829;SDS011;58451;51.550;7.208;2023-07-24T06:53:20;7.20;;;2.90;;
70829;SDS011;58451;51.550;7.208;2023-07-24T06:54:52;7.60;;;3.10;;
70829;SDS011;58451;51.550;7.208;2023-07-24T06:56:24;7.40;;;3.10;;
70829;SDS011;58451;51.550;7.208;2023-07-24T06:57:55;8.00;;;3.10;;
70829;SDS011;58451;51.550;7.208;2023-07-24T06:59:27;8.30;;;3.20;;
70829;SDS011;58451;51.550;7.208;2023-07-24T07:00:59;8.80;;;3.00;;
70829;SDS011;58451;51.550;7.208;2023-07-24T07:02:31;6.80;;;2.70;;
70829;SDS011;58451;51.550;7.208;2023-07-24T07:04:03;7.60;;;2.70;;
70829;SDS011;58451;51.550;7.208;2023-07-24T07:05:35;7.00;;;2.50;;
70829;SDS011;58451;51.550;7.208;2023-07-24T07:07:07;5.70;;;2.40;;
70829;SDS011;58451;51.550;7.208;2023-07-24T07:08:39;6.80;;;3.20;;
70829;SDS011;58451;51.550;7.208;2023-07-24T07:10:11;6.80;;;3.20;;
70829;SDS011;58451;51.550;7.208;2023-07-24T07:11:42;6.60;;;2.80;;
70829;SDS011;58451;51.550;7.208;2023-07-24T07:13:14;7.30;;;3.00;;
70829;SDS011;58451;51.550;7.208;2023-07-24T07:14:46;7.10;;;2.80;;
70829;SDS011;58451;51.550;7.208;2023-07-24T07:16:18;7.30;;;2.60;;
70829;SDS011;58451;51.550;7.208;2023-07-24T07:17:50;7.90;;;3.20;;
70829;SDS011;58451;51.550;7.208;2023-07-24T07:19:22;6.10;;;2.80;;
70829;SDS011;58451;51.550;7.208;2023-07-24T07:20:54;7.10;;;2.70;;
70829;SDS011;58451;51.550;7.208;2023-07-24T07:22:26;8.70;;;3.20;;
70829;SDS011;58451;51.550;7.208;2023-07-24T07:23:58;7.50;;;2.60;;
70829;SDS011;58451;51.550;7.208;2023-07-24T07:25:30;8.10;;;2.80;;
70829;SDS011;58451;51.550;7.208;2023-07-24T07:27:01;7.40;;;3.10;;
70829;SDS011;58451;51.550;7.208;2023-07-24T07:28:33;7.30;;;2.80;;
70829;SDS011;58451;51.550;7.208;2023-07-24T07:30:06;10.50;;;3.00;;
70829;SDS011;58451;51.550;7.208;2023-07-24T07:31:38;7.30;;;3.10;;
70829;SDS011;58451;51.550;7.208;2023-07-24T07:33:10;9.30;;;3.20;;
70829;SDS011;58451;51.550;7.208;2023-07-24T07:34:42;6.20;;;2.60;;
70829;SDS011;58451;51.550;7.208;2023-07-24T07:36:14;9.50;;;2.80;;
70829;SDS011;58451;51.550;7.208;2023-07-24T07:37:45;6.30;;;3.00;;
70829;SDS011;58451;51.550;7.208;2023-07-24T07:39:17;6.00;;;2.50;;
70829;SDS011;58451;51.550;7.208;2023-07-24T07:40:49;6.30;;;2.60;;
70829;SDS011;58451;51.550;7.208;2023-07-24T07:42:21;7.90;;;2.80;;
70829;SDS011;58451;51.550;7.208;2023-07-24T07:43:53;7.00;;;2.90;;
70829;SDS011;58451;51.550;7.208;2023-07-24T07:45:24;7.80;;;2.90;;
70829;SDS011;58451;51.550;7.208;2023-07-24T07:46:56;6.90;;;2.90;;
70829;SDS011;58451;51.550;7.208;2023-07-24T07:48:28;7.60;;;2.70;;
70829;SDS011;58451;51.550;7.208;2023-07-24T07:50:00;7.40;;;2.80;;
70829;SDS011;58451;51.550;7.208;2023-07-24T07:51:35;6.10;;;2.50;;
70829;SDS011;58451;51.550;7.208;2023-07-24T07:53:07;6.30;;;2.80;;
70829;SDS011;58451;51.550;7.208;2023-07-24T07:54:39;6.60;;;2.90;;
70829;SDS011;58451;51.550;7.208;2023-07-24T07:56:11;8.20;;;2.70;;
70829;SDS011;58451;51.550;7.208;2023-07-24T07:57:43;6.30;;;2.80;;
70829;SDS011;58451;51.550;7.208;2023-07-24T07:59:14;7.20;;;2.90;;
70829;SDS011;58451;51.550;7.208;2023-07-24T08:00:46;5.00;;;2.40;;
70829;SDS011;58451;51.550;7.208;2023-07-24T08:02:18;5.60;;;2.50;;
70829;SDS011;58451;51.550;7.208;2023-07-24T08:03:50;7.10;;;2.50;;
70829;SDS011;58451;51.550;7.208;2023-07-24T08:05:22;6.30;;;2.80;;
70829;SDS011;58451;51.550;7.208;2023-07-24T08:06:54;7.00;;;2.40;;
70829;SDS011;58451;51.550;7.208;2023-07-24T08:08:26;6.20;;;2.50;;
70829;SDS011;58451;51.550;7.208;2023-07-24T08:09:58;5.50;;;2.40;;
70829;SDS011;58451;51.550;7.208;2023-07-24T08:11:30;7.10;;;2.70;;
70829;SDS011;58451;51.550;7.208;2023-07-24T08:13:01;5.70;;;2.10;;
70829;SDS011;58451;51.550;7.208;2023-07-24T08:14:33;6.30;;;2.70;;
70829;SDS011;58451;51.550;7.208;2023-07-24T08:16:15;5.30;;;2.30;;
70829;SDS011;58451;51.550;7.208;2023-07-24T08:17:52;6.50;;;2.50;;
70829;SDS011;58451;51.550;7.208;2023-07-24T08:19:28;6.80;;;2.70;;
70829;SDS011;58451;51.550;7.208;2023-07-24T08:21:00;6.10;;;2.60;;
70829;SDS011;58451;51.550;7.208;2023-07-24T08:22:32;6.90;;;3.10;;
70829;SDS011;58451;51.550;7.208;2023-07-24T08:24:04;6.50;;;2.90;;
70829;SDS011;58451;51.550;7.208;2023-07-24T08:25:36;8.80;;;2.50;;
70829;SDS011;58451;51.550;7.208;2023-07-24T08:27:08;7.20;;;2.60;;
70829;SDS011;58451;51.550;7.208;2023-07-24T08:28:40;5.40;;;2.50;;
70829;SDS011;58451;51.550;7.208;2023-07-24T08:30:14;6.30;;;2.80;;
70829;SDS011;58451;51.550;7.208;2023-07-24T08:31:45;6.40;;;2.60;;
70829;SDS011;58451;51.550;7.208;2023-07-24T08:33:17;6.80;;;2.80;;
70829;SDS011;58451;51.550;7.208;2023-07-24T08:34:49;7.50;;;3.00;;
70829;SDS011;58451;51.550;7.208;2023-07-24T08:36:21;6.20;;;2.50;;
70829;SDS011;58451;51.550;7.208;2023-07-24T08:37:53;7.40;;;2.60;;
70829;SDS011;58451;51.550;7.208;2023-07-24T08:39:25;6.30;;;2.40;;
70829;SDS011;58451;51.550;7.208;2023-07-24T08:41:15;6.80;;;2.90;;
70829;SDS011;58451;51.550;7.208;2023-07-24T08:42:50;6.80;;;3.10;;
70829;SDS011;58451;51.550;7.208;2023-07-24T08:44:22;8.40;;;3.70;;
70829;SDS011;58451;51.550;7.208;2023-07-24T08:45:58;7.20;;;3.20;;
70829;SDS011;58451;51.550;7.208;2023-07-24T08:47:34;6.70;;;2.80;;
70829;SDS011;58451;51.550;7.208;2023-07-24T08:49:14;7.20;;;3.10;;
70829;SDS011;58451;51.550;7.208;2023-07-24T08:50:47;7.30;;;2.80;;
70829;SDS011;58451;51.550;7.208;2023-07-24T08:52:21;7.20;;;3.20;;
70829;SDS011;58451;51.550;7.208;2023-07-24T08:54:07;6.60;;;2.70;;
70829;SDS011;58451;51.550;7.208;2023-07-24T08:55:40;5.10;;;2.70;;
70829;SDS011;58451;51.550;7.208;2023-07-24T08:57:13;9.20;;;2.80;;
70829;SDS011;58451;51.550;7.208;2023-07-24T08:58:45;6.40;;;2.70;;
70829;SDS011;58451;51.550;7.208;2023-07-24T09:00:17;5.70;;;2.80;;
70829;SDS011;58451;51.550;7.208;2023-07-24T09:01:50;6.50;;;2.80;;
70829;SDS011;58451;51.550;7.208;2023-07-24T09:03:22;6.70;;;3.30;;
70829;SDS011;58451;51.550;7.208;2023-07-24T09:04:54;7.30;;;3.40;;
70829;SDS011;58451;51.550;7.208;2023-07-24T09:06:26;7.30;;;4.10;;
70829;SDS011;58451;51.550;7.208;2023-07-24T09:07:59;8.40;;;4.10;;
70829;SDS011;58451;51.550;7.208;2023-07-24T09:09:31;8.40;;;4.40;;
70829;SDS011;58451;51.550;7.208;2023-07-24T09:11:04;9.60;;;4.50;;
70829;SDS011;58451;51.550;7.208;2023-07-24T09:12:38;8.70;;;4.80;;
70829;SDS011;58451;51.550;7.208;2023-07-24T09:14:28;9.30;;;5.80;;
70829;SDS011;58451;51.550;7.208;2023-07-24T09:16:03;10.60;;;5.60;;
70829;SDS011;58451;51.550;7.208;2023-07-24T09:17:36;9.90;;;6.10;;
70829;SDS011;58451;51.550;7.208;2023-07-24T09:19:21;9.40;;;6.10;;